sensor_id;sensor_type;location;lat;lon;timestamp;temperature;humidity
26049;DHT22;13822;51.568;5.086;2023-04-06T00:01:21;6.90;59.20
26049;DHT22;13822;51.568;5.086;2023-04-06T00:07:05;6.90;59.30
26049;DHT22;13822;51.568;5.086;2023-04-06T00:12:11;6.90;60.80
26049;DHT22;13822;51.568;5.086;2023-04-06T00:17:36;6.90;61.20
26049;DHT22;13822;51.568;5.086;2023-04-06T00:22:47;6.90;61.90
26049;DHT22;13822;51.568;5.086;2023-04-06T00:28:02;6.80;62.00
26049;DHT22;13822;51.568;5.086;2023-04-06T00:33:32;6.70;62.00
26049;DHT22;13822;51.568;5.086;2023-04-06T00:38:43;6.70;63.30
26049;DHT22;13822;51.568;5.086;2023-04-06T00:43:54;6.70;64.10
26049;DHT22;13822;51.568;5.086;2023-04-06T00:49:03;6.60;64.50
26049;DHT22;13822;51.568;5.086;2023-04-06T00:54:26;6.60;64.40
26049;DHT22;13822;51.568;5.086;2023-04-06T00:59:46;6.60;64.40
26049;DHT22;13822;51.568;5.086;2023-04-06T01:10:38;6.50;65.30
26049;DHT22;13822;51.568;5.086;2023-04-06T01:15:59;6.50;65.20
26049;DHT22;13822;51.568;5.086;2023-04-06T01:21:11;6.50;65.80
26049;DHT22;13822;51.568;5.086;2023-04-06T01:26:19;6.50;65.40
26049;DHT22;13822;51.568;5.086;2023-04-06T01:31:24;6.40;65.70
26049;DHT22;13822;51.568;5.086;2023-04-06T01:37:06;6.30;65.70
26049;DHT22;13822;51.568;5.086;2023-04-06T01:42:47;6.30;66.40
26049;DHT22;13822;51.568;5.086;2023-04-06T01:48:00;6.30;66.80
26049;DHT22;13822;51.568;5.086;2023-04-06T01:53:41;6.20;66.70
26049;DHT22;13822;51.568;5.086;2023-04-06T01:59:10;6.20;67.00
26049;DHT22;13822;51.568;5.086;2023-04-06T02:04:16;6.10;68.10
26049;DHT22;13822;51.568;5.086;2023-04-06T02:09:42;6.10;69.10
26049;DHT22;13822;51.568;5.086;2023-04-06T02:15:07;6.10;68.60
26049;DHT22;13822;51.568;5.086;2023-04-06T02:20:19;6.20;69.10
26049;DHT22;13822;51.568;5.086;2023-04-06T02:25:31;6.10;69.80
26049;DHT22;13822;51.568;5.086;2023-04-06T02:30:40;6.10;69.30
26049;DHT22;13822;51.568;5.086;2023-04-06T02:35:53;6.10;69.70
26049;DHT22;13822;51.568;5.086;2023-04-06T02:41:12;6.10;69.70
26049;DHT22;13822;51.568;5.086;2023-04-06T02:46:46;6.10;69.70
26049;DHT22;13822;51.568;5.086;2023-04-06T02:52:12;6.10;70.70
26049;DHT22;13822;51.568;5.086;2023-04-06T02:57:23;6.10;71.00
26049;DHT22;13822;51.568;5.086;2023-04-06T03:02:29;6.10;70.00
26049;DHT22;13822;51.568;5.086;2023-04-06T03:07:48;6.10;69.50
26049;DHT22;13822;51.568;5.086;2023-04-06T03:18:48;6.10;70.40
26049;DHT22;13822;51.568;5.086;2023-04-06T03:24:05;6.10;71.20
26049;DHT22;13822;51.568;5.086;2023-04-06T03:29:16;6.10;71.20
26049;DHT22;13822;51.568;5.086;2023-04-06T03:34:25;6.10;71.60
26049;DHT22;13822;51.568;5.086;2023-04-06T03:39:30;6.10;72.00
26049;DHT22;13822;51.568;5.086;2023-04-06T03:44:38;6.10;72.30
26049;DHT22;13822;51.568;5.086;2023-04-06T03:49:54;6.10;71.10
26049;DHT22;13822;51.568;5.086;2023-04-06T03:55:05;6.10;71.90
26049;DHT22;13822;51.568;5.086;2023-04-06T04:00:18;6.20;71.80
26049;DHT22;13822;51.568;5.086;2023-04-06T04:05:36;6.20;71.60
26049;DHT22;13822;51.568;5.086;2023-04-06T04:11:07;6.20;72.50
26049;DHT22;13822;51.568;5.086;2023-04-06T04:16:16;6.20;72.30
26049;DHT22;13822;51.568;5.086;2023-04-06T04:21:44;6.20;72.00
26049;DHT22;13822;51.568;5.086;2023-04-06T04:27:15;6.20;71.50
26049;DHT22;13822;51.568;5.086;2023-04-06T04:32:43;6.20;72.60
26049;DHT22;13822;51.568;5.086;2023-04-06T04:37:49;6.20;72.90
26049;DHT22;13822;51.568;5.086;2023-04-06T04:43:10;6.20;73.40
26049;DHT22;13822;51.568;5.086;2023-04-06T04:48:17;6.20;73.00
26049;DHT22;13822;51.568;5.086;2023-04-06T04:53:41;6.20;73.60
26049;DHT22;13822;51.568;5.086;2023-04-06T04:58:57;6.20;72.80
26049;DHT22;13822;51.568;5.086;2023-04-06T05:04:47;6.30;73.10
26049;DHT22;13822;51.568;5.086;2023-04-06T05:10:08;6.30;73.50
26049;DHT22;13822;51.568;5.086;2023-04-06T05:15:32;6.30;73.30
26049;DHT22;13822;51.568;5.086;2023-04-06T05:21:03;6.30;73.70
26049;DHT22;13822;51.568;5.086;2023-04-06T05:26:20;6.30;74.20
26049;DHT22;13822;51.568;5.086;2023-04-06T05:31:38;6.40;74.50
26049;DHT22;13822;51.568;5.086;2023-04-06T05:36:56;6.40;74.60
26049;DHT22;13822;51.568;5.086;2023-04-06T05:42:16;6.30;75.40
26049;DHT22;13822;51.568;5.086;2023-04-06T05:47:30;6.40;75.80
26049;DHT22;13822;51.568;5.086;2023-04-06T05:52:32;6.50;76.70
26049;DHT22;13822;51.568;5.086;2023-04-06T05:57:34;6.50;75.80
26049;DHT22;13822;51.568;5.086;2023-04-06T06:02:37;6.60;76.50
26049;DHT22;13822;51.568;5.086;2023-04-06T06:07:39;6.60;76.90
26049;DHT22;13822;51.568;5.086;2023-04-06T06:12:50;6.70;77.50
26049;DHT22;13822;51.568;5.086;2023-04-06T06:17:52;6.70;77.90
26049;DHT22;13822;51.568;5.086;2023-04-06T06:22:54;6.80;77.60
26049;DHT22;13822;51.568;5.086;2023-04-06T06:27:57;6.80;77.10
26049;DHT22;13822;51.568;5.086;2023-04-06T06:33:00;6.80;77.10
26049;DHT22;13822;51.568;5.086;2023-04-06T06:38:02;6.90;77.80
26049;DHT22;13822;51.568;5.086;2023-04-06T06:43:08;6.90;78.70
26049;DHT22;13822;51.568;5.086;2023-04-06T06:48:14;7.00;78.60
26049;DHT22;13822;51.568;5.086;2023-04-06T06:53:16;7.00;78.60
26049;DHT22;13822;51.568;5.086;2023-04-06T06:58:18;7.00;77.60
26049;DHT22;13822;51.568;5.086;2023-04-06T07:03:21;7.10;77.90
26049;DHT22;13822;51.568;5.086;2023-04-06T07:08:23;7.10;79.50
26049;DHT22;13822;51.568;5.086;2023-04-06T07:13:26;7.20;79.20
26049;DHT22;13822;51.568;5.086;2023-04-06T07:18:28;7.20;79.90
26049;DHT22;13822;51.568;5.086;2023-04-06T07:23:31;7.30;80.00
26049;DHT22;13822;51.568;5.086;2023-04-06T07:28:33;7.30;79.90
26049;DHT22;13822;51.568;5.086;2023-04-06T07:33:35;7.40;80.70
26049;DHT22;13822;51.568;5.086;2023-04-06T07:38:36;7.40;81.20
26049;DHT22;13822;51.568;5.086;2023-04-06T07:43:39;7.50;82.00
26049;DHT22;13822;51.568;5.086;2023-04-06T07:48:41;7.60;81.30
26049;DHT22;13822;51.568;5.086;2023-04-06T07:53:46;7.70;82.00
26049;DHT22;13822;51.568;5.086;2023-04-06T07:58:48;7.80;82.40
26049;DHT22;13822;51.568;5.086;2023-04-06T08:03:52;7.90;82.60
26049;DHT22;13822;51.568;5.086;2023-04-06T08:08:54;8.00;83.00
26049;DHT22;13822;51.568;5.086;2023-04-06T08:13:56;8.00;82.60
26049;DHT22;13822;51.568;5.086;2023-04-06T08:18:58;8.10;83.10
26049;DHT22;13822;51.568;5.086;2023-04-06T08:24:01;8.20;85.00
26049;DHT22;13822;51.568;5.086;2023-04-06T08:29:03;8.20;84.90
26049;DHT22;13822;51.568;5.086;2023-04-06T08:34:05;8.30;85.80
26049;DHT22;13822;51.568;5.086;2023-04-06T08:39:11;8.40;86.30
26049;DHT22;13822;51.568;5.086;2023-04-06T08:44:13;8.60;87.90
26049;DHT22;13822;51.568;5.086;2023-04-06T08:49:15;8.70;89.10
26049;DHT22;13822;51.568;5.086;2023-04-06T08:54:17;8.80;91.10
26049;DHT22;13822;51.568;5.086;2023-04-06T08:59:19;8.90;92.60
26049;DHT22;13822;51.568;5.086;2023-04-06T09:04:22;8.90;93.70
26049;DHT22;13822;51.568;5.086;2023-04-06T09:09:24;9.00;95.30
26049;DHT22;13822;51.568;5.086;2023-04-06T09:14:33;9.00;97.20
26049;DHT22;13822;51.568;5.086;2023-04-06T09:19:48;9.00;99.30
26049;DHT22;13822;51.568;5.086;2023-04-06T09:24:51;9.00;99.90
26049;DHT22;13822;51.568;5.086;2023-04-06T09:30:01;9.00;99.90
26049;DHT22;13822;51.568;5.086;2023-04-06T09:35:26;9.00;99.90
26049;DHT22;13822;51.568;5.086;2023-04-06T09:40:29;9.00;99.90
26049;DHT22;13822;51.568;5.086;2023-04-06T09:45:31;9.00;99.90
26049;DHT22;13822;51.568;5.086;2023-04-06T09:50:33;9.00;99.90
26049;DHT22;13822;51.568;5.086;2023-04-06T09:55:43;9.00;99.90
26049;DHT22;13822;51.568;5.086;2023-04-06T10:00:51;9.00;99.90
26049;DHT22;13822;51.568;5.086;2023-04-06T10:06:03;9.00;99.90
26049;DHT22;13822;51.568;5.086;2023-04-06T10:11:07;8.90;99.90
26049;DHT22;13822;51.568;5.086;2023-04-06T10:16:10;8.90;99.90
26049;DHT22;13822;51.568;5.086;2023-04-06T10:21:19;8.90;99.90
26049;DHT22;13822;51.568;5.086;2023-04-06T10:26:23;8.90;99.90
26049;DHT22;13822;51.568;5.086;2023-04-06T10:31:25;8.90;99.90
26049;DHT22;13822;51.568;5.086;2023-04-06T10:36:32;9.00;99.90
26049;DHT22;13822;51.568;5.086;2023-04-06T10:41:36;9.00;99.90
26049;DHT22;13822;51.568;5.086;2023-04-06T10:46:56;9.10;99.90
26049;DHT22;13822;51.568;5.086;2023-04-06T10:51:58;9.10;99.90
26049;DHT22;13822;51.568;5.086;2023-04-06T10:57:00;9.20;99.90
26049;DHT22;13822;51.568;5.086;2023-04-06T11:02:03;9.30;99.90
26049;DHT22;13822;51.568;5.086;2023-04-06T11:07:05;9.30;99.90
26049;DHT22;13822;51.568;5.086;2023-04-06T11:12:07;9.40;99.90
26049;DHT22;13822;51.568;5.086;2023-04-06T11:17:09;9.50;99.90
26049;DHT22;13822;51.568;5.086;2023-04-06T11:22:11;9.50;99.90
26049;DHT22;13822;51.568;5.086;2023-04-06T11:27:13;9.60;99.90
26049;DHT22;13822;51.568;5.086;2023-04-06T11:32:21;9.50;99.90
26049;DHT22;13822;51.568;5.086;2023-04-06T11:37:25;9.60;99.90
26049;DHT22;13822;51.568;5.086;2023-04-06T11:42:29;9.60;99.90
26049;DHT22;13822;51.568;5.086;2023-04-06T11:47:32;9.60;99.90
26049;DHT22;13822;51.568;5.086;2023-04-06T11:52:35;9.60;99.90
26049;DHT22;13822;51.568;5.086;2023-04-06T11:57:37;9.60;99.90
26049;DHT22;13822;51.568;5.086;2023-04-06T12:02:39;9.50;99.90
26049;DHT22;13822;51.568;5.086;2023-04-06T12:07:42;9.50;99.90
26049;DHT22;13822;51.568;5.086;2023-04-06T12:12:47;9.50;99.90
26049;DHT22;13822;51.568;5.086;2023-04-06T12:17:49;9.50;99.90
26049;DHT22;13822;51.568;5.086;2023-04-06T12:22:51;9.50;99.90
26049;DHT22;13822;51.568;5.086;2023-04-06T12:27:53;9.40;99.90
26049;DHT22;13822;51.568;5.086;2023-04-06T12:32:55;9.40;99.90
26049;DHT22;13822;51.568;5.086;2023-04-06T12:37:58;9.40;99.90
26049;DHT22;13822;51.568;5.086;2023-04-06T12:43:00;9.40;99.90
26049;DHT22;13822;51.568;5.086;2023-04-06T12:48:04;9.30;99.90
26049;DHT22;13822;51.568;5.086;2023-04-06T12:53:06;9.30;99.90
26049;DHT22;13822;51.568;5.086;2023-04-06T12:58:08;9.30;99.90
26049;DHT22;13822;51.568;5.086;2023-04-06T13:03:13;9.30;99.90
26049;DHT22;13822;51.568;5.086;2023-04-06T13:08:18;9.30;99.90
26049;DHT22;13822;51.568;5.086;2023-04-06T13:13:24;9.30;99.90
26049;DHT22;13822;51.568;5.086;2023-04-06T13:18:26;9.20;99.90
26049;DHT22;13822;51.568;5.086;2023-04-06T13:23:28;9.20;99.90
26049;DHT22;13822;51.568;5.086;2023-04-06T13:28:31;9.20;99.90
26049;DHT22;13822;51.568;5.086;2023-04-06T13:33:34;9.10;99.90
26049;DHT22;13822;51.568;5.086;2023-04-06T13:38:36;9.10;99.90
26049;DHT22;13822;51.568;5.086;2023-04-06T13:43:40;9.10;99.90
26049;DHT22;13822;51.568;5.086;2023-04-06T13:48:42;9.00;99.90
26049;DHT22;13822;51.568;5.086;2023-04-06T13:53:45;9.00;99.90
26049;DHT22;13822;51.568;5.086;2023-04-06T13:58:47;8.90;99.90
26049;DHT22;13822;51.568;5.086;2023-04-06T14:03:49;8.90;99.90
26049;DHT22;13822;51.568;5.086;2023-04-06T14:08:51;8.90;99.90
26049;DHT22;13822;51.568;5.086;2023-04-06T14:13:53;8.80;99.90
26049;DHT22;13822;51.568;5.086;2023-04-06T14:18:58;8.80;99.90
26049;DHT22;13822;51.568;5.086;2023-04-06T14:24:00;8.80;99.90
26049;DHT22;13822;51.568;5.086;2023-04-06T14:29:03;8.70;99.90
26049;DHT22;13822;51.568;5.086;2023-04-06T14:34:06;8.60;99.90
26049;DHT22;13822;51.568;5.086;2023-04-06T14:39:08;8.60;99.90
26049;DHT22;13822;51.568;5.086;2023-04-06T14:44:11;8.60;99.90
26049;DHT22;13822;51.568;5.086;2023-04-06T14:49:13;8.60;99.90
26049;DHT22;13822;51.568;5.086;2023-04-06T14:54:15;8.60;99.90
26049;DHT22;13822;51.568;5.086;2023-04-06T14:59:17;8.50;99.90
26049;DHT22;13822;51.568;5.086;2023-04-06T15:04:19;8.60;99.90
26049;DHT22;13822;51.568;5.086;2023-04-06T15:09:22;8.60;99.90
26049;DHT22;13822;51.568;5.086;2023-04-06T15:14:24;8.70;99.90
26049;DHT22;13822;51.568;5.086;2023-04-06T15:19:26;8.70;99.90
26049;DHT22;13822;51.568;5.086;2023-04-06T15:24:28;8.70;99.90
26049;DHT22;13822;51.568;5.086;2023-04-06T15:29:30;8.70;99.90
26049;DHT22;13822;51.568;5.086;2023-04-06T15:34:32;8.70;99.90
26049;DHT22;13822;51.568;5.086;2023-04-06T15:39:35;8.70;99.90
26049;DHT22;13822;51.568;5.086;2023-04-06T15:44:38;8.80;99.90
26049;DHT22;13822;51.568;5.086;2023-04-06T15:49:40;8.80;99.90
26049;DHT22;13822;51.568;5.086;2023-04-06T15:54:42;8.80;99.90
26049;DHT22;13822;51.568;5.086;2023-04-06T15:59:45;8.90;99.90
26049;DHT22;13822;51.568;5.086;2023-04-06T16:04:47;8.90;99.90
26049;DHT22;13822;51.568;5.086;2023-04-06T16:09:50;8.90;99.90
26049;DHT22;13822;51.568;5.086;2023-04-06T16:14:52;9.00;99.90
26049;DHT22;13822;51.568;5.086;2023-04-06T16:19:54;9.00;99.90
26049;DHT22;13822;51.568;5.086;2023-04-06T16:24:56;9.00;99.90
26049;DHT22;13822;51.568;5.086;2023-04-06T16:30:01;9.00;99.90
26049;DHT22;13822;51.568;5.086;2023-04-06T16:35:08;9.00;99.90
26049;DHT22;13822;51.568;5.086;2023-04-06T16:40:10;9.00;99.90
26049;DHT22;13822;51.568;5.086;2023-04-06T16:45:12;9.10;99.90
26049;DHT22;13822;51.568;5.086;2023-04-06T16:50:15;9.10;99.90
26049;DHT22;13822;51.568;5.086;2023-04-06T16:55:18;9.10;99.90
26049;DHT22;13822;51.568;5.086;2023-04-06T17:00:23;9.10;99.90
26049;DHT22;13822;51.568;5.086;2023-04-06T17:05:25;9.10;99.90
26049;DHT22;13822;51.568;5.086;2023-04-06T17:10:28;9.10;99.90
26049;DHT22;13822;51.568;5.086;2023-04-06T17:15:37;9.10;99.90
26049;DHT22;13822;51.568;5.086;2023-04-06T17:20:39;9.20;99.90
26049;DHT22;13822;51.568;5.086;2023-04-06T17:25:42;9.20;99.90
26049;DHT22;13822;51.568;5.086;2023-04-06T17:30:43;9.10;99.90
26049;DHT22;13822;51.568;5.086;2023-04-06T17:35:48;9.20;99.90
26049;DHT22;13822;51.568;5.086;2023-04-06T17:40:51;9.20;99.90
26049;DHT22;13822;51.568;5.086;2023-04-06T17:45:53;9.20;99.90
26049;DHT22;13822;51.568;5.086;2023-04-06T17:50:55;9.20;99.90
26049;DHT22;13822;51.568;5.086;2023-04-06T17:56:02;9.20;99.90
26049;DHT22;13822;51.568;5.086;2023-04-06T18:01:05;9.20;99.90
26049;DHT22;13822;51.568;5.086;2023-04-06T18:06:09;9.30;99.90
26049;DHT22;13822;51.568;5.086;2023-04-06T18:11:13;9.30;99.90
26049;DHT22;13822;51.568;5.086;2023-04-06T18:16:22;9.30;99.90
26049;DHT22;13822;51.568;5.086;2023-04-06T18:21:24;9.30;99.90
26049;DHT22;13822;51.568;5.086;2023-04-06T18:26:28;9.40;99.90
26049;DHT22;13822;51.568;5.086;2023-04-06T18:31:37;9.40;99.90
26049;DHT22;13822;51.568;5.086;2023-04-06T18:36:42;9.40;99.90
